createdAt,value
2018-07-13T00:00:20.624Z,8.70
2018-07-13T00:02:49.044Z,9.07
2018-07-13T00:05:17.881Z,10.47
2018-07-13T00:07:46.889Z,9.97
2018-07-13T00:10:15.713Z,11.40
2018-07-13T00:12:44.655Z,11.10
2018-07-13T00:15:13.737Z,14.63
2018-07-13T00:17:43.064Z,10.57
2018-07-13T00:20:12.070Z,15.17
2018-07-13T00:22:41.119Z,13.63
2018-07-13T00:25:10.229Z,12.63
2018-07-13T00:27:39.107Z,14.37
2018-07-13T00:30:08.095Z,13.23
2018-07-13T00:32:36.910Z,12.57
2018-07-13T00:35:05.801Z,11.60
2018-07-13T00:37:34.634Z,10.17
2018-07-13T00:40:03.530Z,10.43
2018-07-13T00:42:32.440Z,12.00
2018-07-13T00:45:01.300Z,9.40
2018-07-13T00:47:30.230Z,9.53
2018-07-13T00:49:59.110Z,8.77
2018-07-13T00:52:27.733Z,8.50
2018-07-13T00:54:57.261Z,8.43
2018-07-13T00:57:26.224Z,7.27
2018-07-13T00:59:55.065Z,7.10
2018-07-13T01:02:24.020Z,7.63
2018-07-13T01:04:52.857Z,9.07
2018-07-13T01:07:22.208Z,9.57
2018-07-13T01:09:52.075Z,9.40
2018-07-13T01:12:21.045Z,9.23
2018-07-13T01:14:49.916Z,8.43
2018-07-13T01:17:22.070Z,7.83
2018-07-13T01:19:50.890Z,8.23
2018-07-13T01:22:19.740Z,7.63
2018-07-13T01:24:48.648Z,11.43
2018-07-13T01:27:17.490Z,9.70
2018-07-13T01:29:46.329Z,7.90
2018-07-13T01:32:15.153Z,10.07
2018-07-13T01:34:43.952Z,8.17
2018-07-13T01:37:12.789Z,7.03
2018-07-13T01:39:41.609Z,8.17
2018-07-13T01:42:10.429Z,8.87
2018-07-13T01:44:39.256Z,11.70
2018-07-13T01:47:08.065Z,15.33
2018-07-13T01:49:36.920Z,13.63
2018-07-13T01:52:05.750Z,14.40
2018-07-13T01:54:34.624Z,13.43
2018-07-13T01:57:03.441Z,12.20
2018-07-13T01:59:32.259Z,13.40
2018-07-13T02:02:01.129Z,11.77
2018-07-13T02:04:29.964Z,9.47
2018-07-13T02:06:58.788Z,10.40
2018-07-13T02:09:27.673Z,12.23
2018-07-13T02:11:56.536Z,10.83
2018-07-13T02:14:25.393Z,10.43
2018-07-13T02:16:54.309Z,11.63
2018-07-13T02:19:23.197Z,10.97
2018-07-13T02:21:52.163Z,12.57
2018-07-13T02:24:20.963Z,10.87
2018-07-13T02:26:49.767Z,9.80
2018-07-13T02:29:18.589Z,9.27
2018-07-13T02:31:47.438Z,8.97
2018-07-13T02:34:15.903Z,8.00
2018-07-13T02:36:44.278Z,6.63
2018-07-13T02:39:13.266Z,6.43
2018-07-13T02:41:42.073Z,7.07
2018-07-13T02:44:10.934Z,5.53
2018-07-13T02:46:39.821Z,7.30
2018-07-13T02:49:08.732Z,8.50
2018-07-13T02:51:37.506Z,8.67
2018-07-13T02:54:06.716Z,8.07
2018-07-13T02:56:35.536Z,8.77
2018-07-13T02:59:04.345Z,9.53
2018-07-13T03:01:33.134Z,10.30
2018-07-13T03:04:02.010Z,10.37
2018-07-13T03:06:30.829Z,12.77
2018-07-13T03:08:59.690Z,11.97
2018-07-13T03:11:28.660Z,12.30
2018-07-13T03:13:57.547Z,14.30
2018-07-13T03:16:26.457Z,13.60
2018-07-13T03:18:59.993Z,14.03
2018-07-13T03:21:29.977Z,13.47
2018-07-13T03:23:58.889Z,15.30
2018-07-13T03:26:27.953Z,15.23
2018-07-13T03:28:56.796Z,15.60
2018-07-13T03:31:25.605Z,19.63
2018-07-13T03:33:54.401Z,15.77
2018-07-13T03:36:23.324Z,16.07
2018-07-13T03:38:52.208Z,18.27
2018-07-13T03:41:21.605Z,17.07
2018-07-13T03:43:50.440Z,17.57
2018-07-13T03:46:19.289Z,15.17
2018-07-13T03:48:48.106Z,17.00
2018-07-13T03:51:16.973Z,15.87
2018-07-13T03:53:45.756Z,17.77
2018-07-13T03:56:14.614Z,20.17
2018-07-13T03:58:43.500Z,17.93
2018-07-13T04:01:12.379Z,19.73
2018-07-13T04:03:41.236Z,16.60
2018-07-13T04:06:10.063Z,18.87
2018-07-13T04:08:38.903Z,20.20
2018-07-13T04:11:07.828Z,20.97
2018-07-13T04:13:36.672Z,18.30
2018-07-13T04:16:06.563Z,19.37
2018-07-13T04:18:35.398Z,18.57
2018-07-13T04:21:04.690Z,18.63
2018-07-13T04:23:33.642Z,18.70
2018-07-13T04:26:02.497Z,18.63
2018-07-13T04:28:32.153Z,16.83
2018-07-13T04:31:01.058Z,17.03
2018-07-13T04:33:29.884Z,16.50
2018-07-13T04:35:58.325Z,19.03
2018-07-13T04:38:27.170Z,16.97
2018-07-13T04:40:56.079Z,20.40
2018-07-13T04:43:24.940Z,16.87
2018-07-13T04:45:53.817Z,16.60
2018-07-13T04:48:22.637Z,15.90
2018-07-13T04:50:51.555Z,15.60
2018-07-13T04:53:20.521Z,14.60
2018-07-13T04:55:49.508Z,14.53
2018-07-13T04:58:17.999Z,17.00
2018-07-13T05:00:46.513Z,15.27
2018-07-13T05:03:15.529Z,19.90
2018-07-13T05:05:44.586Z,19.07
2018-07-13T05:08:13.620Z,17.37
2018-07-13T05:10:42.530Z,16.77
2018-07-13T05:13:11.426Z,18.07
2018-07-13T05:15:42.195Z,22.47
2018-07-13T05:18:11.120Z,21.43
2018-07-13T05:20:40.163Z,20.03
2018-07-13T05:23:09.175Z,19.37
2018-07-13T05:25:38.164Z,18.93
2018-07-13T05:28:07.120Z,17.33
2018-07-13T05:30:36.618Z,18.20
2018-07-13T05:33:06.093Z,18.43
2018-07-13T05:35:35.038Z,18.00
2018-07-13T05:38:04.092Z,16.20
2018-07-13T05:40:33.033Z,21.40
2018-07-13T05:43:02.038Z,16.33
2018-07-13T05:45:31.228Z,14.77
2018-07-13T05:48:00.233Z,12.83
2018-07-13T05:50:30.105Z,13.20
2018-07-13T05:52:59.061Z,13.40
2018-07-13T05:55:28.055Z,17.77
2018-07-13T05:57:57.046Z,16.83
2018-07-13T06:00:26.343Z,17.67
2018-07-13T06:02:55.641Z,16.30
2018-07-13T06:05:24.560Z,16.93
2018-07-13T06:07:53.805Z,21.40
2018-07-13T06:10:22.781Z,18.53
2018-07-13T06:12:51.923Z,20.43
2018-07-13T06:15:20.814Z,22.87
2018-07-13T06:17:49.707Z,20.67
2018-07-13T06:20:18.575Z,16.07
2018-07-13T06:22:47.442Z,14.97
2018-07-13T06:25:16.402Z,16.47
2018-07-13T06:27:45.379Z,19.93
2018-07-13T06:30:14.431Z,14.63
2018-07-13T06:32:43.276Z,14.17
2018-07-13T06:35:12.337Z,15.43
2018-07-13T06:37:41.250Z,17.40
2018-07-13T06:40:10.234Z,20.23
2018-07-13T06:42:39.213Z,16.60
2018-07-13T06:45:08.145Z,16.70
2018-07-13T06:47:37.011Z,19.10
2018-07-13T06:50:06.033Z,17.17
2018-07-13T06:52:35.101Z,13.17
2018-07-13T06:55:04.005Z,18.53
2018-07-13T06:57:43.786Z,13.80
2018-07-13T07:00:58.338Z,13.50
2018-07-13T07:03:29.552Z,15.87
2018-07-13T07:06:05.666Z,19.60
2018-07-13T07:08:35.086Z,15.17
2018-07-13T07:11:04.105Z,14.70
2018-07-13T07:13:39.877Z,15.07
2018-07-13T07:16:08.903Z,14.67
2018-07-13T07:18:38.420Z,16.60
2018-07-13T07:21:07.553Z,13.90
2018-07-13T07:23:36.685Z,12.87
2018-07-13T07:26:06.430Z,14.97
2018-07-13T07:28:35.393Z,15.07
2018-07-13T07:31:04.580Z,14.77
2018-07-13T07:33:33.480Z,13.90
2018-07-13T07:36:02.353Z,15.47
2018-07-13T07:38:31.270Z,14.33
2018-07-13T07:41:00.177Z,13.93
2018-07-13T07:43:29.136Z,15.17
2018-07-13T07:45:58.147Z,14.33
2018-07-13T07:48:27.101Z,12.57
2018-07-13T07:50:55.993Z,13.60
2018-07-13T07:53:24.868Z,13.10
2018-07-13T07:55:53.752Z,14.63
2018-07-13T07:58:22.601Z,18.50
2018-07-13T08:00:51.464Z,15.20
2018-07-13T08:03:20.393Z,16.00
2018-07-13T08:05:49.297Z,15.20
2018-07-13T08:08:18.161Z,13.07
2018-07-13T08:10:46.980Z,15.57
2018-07-13T08:13:15.979Z,10.07
2018-07-13T08:15:44.891Z,11.77
2018-07-13T08:18:13.793Z,12.17
2018-07-13T08:20:46.730Z,13.10
2018-07-13T08:23:15.690Z,14.20
2018-07-13T08:25:46.759Z,11.87
2018-07-13T08:28:16.171Z,11.00
2018-07-13T08:30:49.654Z,11.17
2018-07-13T08:33:18.556Z,12.40
2018-07-13T08:35:47.433Z,12.10
2018-07-13T08:38:16.333Z,12.87
2018-07-13T08:40:45.249Z,16.70
2018-07-13T08:43:14.221Z,13.93
2018-07-13T08:45:43.312Z,12.97
2018-07-13T08:48:13.436Z,11.90
2018-07-13T08:50:42.441Z,14.37
2018-07-13T08:53:11.498Z,14.10
2018-07-13T08:55:40.565Z,14.73
2018-07-13T08:58:10.734Z,12.60
2018-07-13T09:00:39.682Z,13.47
2018-07-13T09:03:08.517Z,9.83
2018-07-13T09:05:37.401Z,10.27
2018-07-13T09:08:08.336Z,9.87
2018-07-13T09:10:37.283Z,9.97
2018-07-13T09:13:06.341Z,13.07
2018-07-13T09:15:35.253Z,12.87
2018-07-13T09:18:04.212Z,11.90
2018-07-13T09:20:33.085Z,12.37
2018-07-13T09:23:01.973Z,14.60
2018-07-13T09:25:30.900Z,11.97
2018-07-13T09:27:59.989Z,11.33
2018-07-13T09:30:28.957Z,12.33
2018-07-13T09:32:58.272Z,13.07
2018-07-13T09:35:27.125Z,12.23
2018-07-13T09:37:56.120Z,11.73
2018-07-13T09:40:25.109Z,11.43
2018-07-13T09:42:54.080Z,9.90
2018-07-13T09:45:22.529Z,10.60
2018-07-13T09:47:51.532Z,10.43
2018-07-13T09:50:20.644Z,9.50
2018-07-13T09:52:49.562Z,10.13
2018-07-13T09:55:18.459Z,9.40
2018-07-13T09:57:47.320Z,11.20
2018-07-13T10:00:16.212Z,9.90
2018-07-13T10:02:45.363Z,9.00
2018-07-13T10:05:14.324Z,11.20
2018-07-13T10:07:43.360Z,9.57
2018-07-13T10:10:12.249Z,9.20
2018-07-13T10:12:41.217Z,8.10
2018-07-13T10:15:10.111Z,12.27
2018-07-13T10:17:39.012Z,11.17
2018-07-13T10:20:07.853Z,14.93
2018-07-13T10:22:37.145Z,16.67
2018-07-13T10:25:06.143Z,14.03
2018-07-13T10:27:37.788Z,15.90
2018-07-13T10:30:08.449Z,17.73
2018-07-13T10:32:37.385Z,16.20
2018-07-13T10:35:08.131Z,14.50
2018-07-13T10:37:37.364Z,14.57
2018-07-13T10:40:06.238Z,14.83
2018-07-13T10:42:35.083Z,14.90
2018-07-13T10:45:04.029Z,17.77
2018-07-13T10:47:32.928Z,18.43
2018-07-13T10:50:01.773Z,17.53
2018-07-13T10:52:30.737Z,21.43
2018-07-13T10:54:59.558Z,19.37
2018-07-13T10:57:28.410Z,19.37
2018-07-13T10:59:57.343Z,18.30
2018-07-13T11:02:26.157Z,19.70
2018-07-13T11:04:55.012Z,16.97
2018-07-13T11:07:23.893Z,16.87
2018-07-13T11:09:52.688Z,14.83
2018-07-13T11:12:21.654Z,18.90
2018-07-13T11:14:50.517Z,21.80
2018-07-13T11:17:19.357Z,19.73
2018-07-13T11:19:48.193Z,22.83
2018-07-13T11:22:17.073Z,22.00
2018-07-13T11:24:45.891Z,19.83
2018-07-13T11:27:14.743Z,18.13
2018-07-13T11:29:43.663Z,17.87
2018-07-13T11:32:12.732Z,15.43
2018-07-13T11:34:49.224Z,15.60
2018-07-13T11:37:17.836Z,14.47
2018-07-13T11:39:46.861Z,13.17
2018-07-13T11:42:15.851Z,14.20
2018-07-13T11:44:44.724Z,13.83
2018-07-13T11:47:13.582Z,12.57
2018-07-13T11:49:42.439Z,17.63
2018-07-13T11:52:11.343Z,13.70
2018-07-13T11:54:40.179Z,12.23
2018-07-13T11:57:08.997Z,13.30
2018-07-13T11:59:37.862Z,11.67
2018-07-13T12:02:06.964Z,13.30
2018-07-13T12:04:36.173Z,10.70
2018-07-13T12:07:05.214Z,8.67
2018-07-13T12:09:34.101Z,8.93
2018-07-13T12:12:02.969Z,10.37
2018-07-13T12:14:31.807Z,9.83
2018-07-13T12:17:00.889Z,10.20
2018-07-13T12:19:32.080Z,12.13
2018-07-13T12:22:00.925Z,10.97
2018-07-13T12:24:29.794Z,9.73
2018-07-13T12:26:58.697Z,10.83
2018-07-13T12:29:27.851Z,12.80
2018-07-13T12:31:56.687Z,11.40
2018-07-13T12:34:25.529Z,10.60
2018-07-13T12:36:54.348Z,9.93
2018-07-13T12:39:23.245Z,9.70
2018-07-13T12:41:52.330Z,9.47
2018-07-13T12:44:21.249Z,12.57
2018-07-13T12:46:50.058Z,9.63
2018-07-13T12:49:18.896Z,10.53
2018-07-13T12:51:47.747Z,11.63
2018-07-13T12:54:16.695Z,12.13
2018-07-13T12:56:45.493Z,11.05
2018-07-13T12:59:14.317Z,15.18
2018-07-13T13:01:43.188Z,11.60
2018-07-13T13:04:12.025Z,10.70
2018-07-13T13:06:41.119Z,10.00
2018-07-13T13:09:09.989Z,10.00
2018-07-13T13:11:38.827Z,9.07
2018-07-13T13:14:07.891Z,10.20
2018-07-13T13:16:36.790Z,9.50
2018-07-13T13:19:05.616Z,8.40
2018-07-13T13:21:34.510Z,9.17
2018-07-13T13:24:03.409Z,10.53
2018-07-13T13:26:31.787Z,8.50
2018-07-13T13:29:00.797Z,8.17
2018-07-13T13:31:29.185Z,7.63
2018-07-13T13:33:58.080Z,6.40
2018-07-13T13:36:28.141Z,5.77
2018-07-13T13:38:57.030Z,6.47
2018-07-13T13:41:25.845Z,7.50
2018-07-13T13:43:54.692Z,6.37
2018-07-13T13:46:23.516Z,5.47
2018-07-13T13:48:52.362Z,6.12
2018-07-13T13:51:20.818Z,5.95
2018-07-13T13:53:49.634Z,5.00
2018-07-13T13:56:18.562Z,5.97
2018-07-13T13:58:47.600Z,5.90
2018-07-13T14:01:16.418Z,6.33
2018-07-13T14:03:45.272Z,5.40
2018-07-13T14:06:13.785Z,5.85
2018-07-13T14:08:43.030Z,5.58
2018-07-13T14:11:12.241Z,6.10
2018-07-13T14:13:41.106Z,5.97
2018-07-13T14:16:10.098Z,6.47
2018-07-13T14:18:39.061Z,7.17
2018-07-13T14:21:07.908Z,7.20
2018-07-13T14:23:36.750Z,7.73
2018-07-13T14:26:05.764Z,7.63
2018-07-13T14:28:34.568Z,6.13
2018-07-13T14:31:03.534Z,7.07
2018-07-13T14:33:33.040Z,7.10
2018-07-13T14:36:01.937Z,7.87
2018-07-13T14:38:30.363Z,8.30
2018-07-13T14:41:02.115Z,8.17
2018-07-13T14:43:30.941Z,7.40
2018-07-13T14:45:59.777Z,7.97
2018-07-13T14:48:28.642Z,8.60
2018-07-13T14:51:00.944Z,8.67
2018-07-13T14:53:29.842Z,8.13
2018-07-13T14:55:58.845Z,8.37
2018-07-13T14:58:27.224Z,7.83
2018-07-13T15:00:56.091Z,8.77
2018-07-13T15:03:25.472Z,8.30
2018-07-13T15:05:54.500Z,7.47
2018-07-13T15:08:23.523Z,7.95
2018-07-13T15:10:52.426Z,7.50
2018-07-13T15:13:21.335Z,7.72
2018-07-13T15:15:50.216Z,6.90
2018-07-13T15:18:19.091Z,6.40
2018-07-13T15:20:48.056Z,5.70
2018-07-13T15:23:17.009Z,6.80
2018-07-13T15:25:45.831Z,6.40
2018-07-13T15:28:14.697Z,6.43
2018-07-13T15:30:43.539Z,6.10
2018-07-13T15:33:12.354Z,7.30
2018-07-13T15:35:41.298Z,7.20
2018-07-13T15:38:10.136Z,7.70
2018-07-13T15:40:38.997Z,7.80
2018-07-13T15:43:07.832Z,7.73
2018-07-13T15:45:36.641Z,7.23
2018-07-13T15:48:05.570Z,6.60
2018-07-13T15:50:34.558Z,6.73
2018-07-13T15:53:03.379Z,8.40
2018-07-13T15:55:37.502Z,7.73
2018-07-13T15:58:06.622Z,7.43
2018-07-13T16:00:35.560Z,7.20
2018-07-13T16:03:04.462Z,8.40
2018-07-13T16:05:33.345Z,6.63
2018-07-13T16:08:02.267Z,7.17
2018-07-13T16:10:31.260Z,7.20
2018-07-13T16:13:00.110Z,8.73
2018-07-13T16:15:29.677Z,8.33
2018-07-13T16:18:00.418Z,8.33
2018-07-13T16:20:30.375Z,8.30
2018-07-13T16:22:59.236Z,7.87
2018-07-13T16:25:28.327Z,10.40
2018-07-13T16:27:57.236Z,10.40
2018-07-13T16:30:26.478Z,8.30
2018-07-13T16:32:55.320Z,7.90
2018-07-13T16:35:23.748Z,6.37
2018-07-13T16:37:52.697Z,6.80
2018-07-13T16:40:21.610Z,7.80
2018-07-13T16:42:50.790Z,7.73
2018-07-13T16:45:19.670Z,7.53
2018-07-13T16:47:48.530Z,7.50
2018-07-13T16:50:22.751Z,7.67
2018-07-13T16:52:51.642Z,8.50
2018-07-13T16:55:20.510Z,8.07
2018-07-13T16:57:49.353Z,9.13
2018-07-13T17:00:18.421Z,8.33
2018-07-13T17:02:47.273Z,7.57
2018-07-13T17:05:16.952Z,8.40
2018-07-13T17:07:45.761Z,8.97
2018-07-13T17:10:14.807Z,9.73
2018-07-13T17:12:43.663Z,11.73
2018-07-13T17:15:12.585Z,9.30
2018-07-13T17:17:41.445Z,9.53
2018-07-13T17:20:10.362Z,9.63
2018-07-13T17:22:39.155Z,9.87
2018-07-13T17:25:08.696Z,9.97
2018-07-13T17:27:37.900Z,9.53
2018-07-13T17:30:11.873Z,9.63
2018-07-13T17:32:40.785Z,10.13
2018-07-13T17:35:09.631Z,9.13
2018-07-13T17:37:38.458Z,8.10
2018-07-13T17:40:07.479Z,8.10
2018-07-13T17:42:36.324Z,7.63
2018-07-13T17:45:05.777Z,8.03
2018-07-13T17:47:34.616Z,7.15
2018-07-13T17:50:03.049Z,7.37
2018-07-13T17:52:31.466Z,6.62
2018-07-13T17:55:00.295Z,7.53
2018-07-13T17:57:29.125Z,6.95
2018-07-13T17:59:57.966Z,7.70
2018-07-13T18:02:26.460Z,6.83
2018-07-13T18:04:55.593Z,7.97
2018-07-13T18:07:24.560Z,5.75
2018-07-13T18:09:53.476Z,6.03
2018-07-13T18:12:22.351Z,6.10
2018-07-13T18:14:51.460Z,6.60
2018-07-13T18:17:20.405Z,6.00
2018-07-13T18:19:48.973Z,5.80
2018-07-13T18:22:17.926Z,5.53
2018-07-13T18:24:46.751Z,5.92
2018-07-13T18:27:16.685Z,6.05
2018-07-13T18:29:45.505Z,5.50
2018-07-13T18:32:14.418Z,6.50
2018-07-13T18:34:43.370Z,5.80
2018-07-13T18:37:12.547Z,6.45
2018-07-13T18:39:41.417Z,6.72
2018-07-13T18:42:10.296Z,6.37
2018-07-13T18:44:39.496Z,5.62
2018-07-13T18:47:08.342Z,6.33
2018-07-13T18:49:37.206Z,5.85
2018-07-13T18:52:06.402Z,5.60
2018-07-13T18:54:35.293Z,6.90
2018-07-13T18:57:04.226Z,6.80
2018-07-13T18:59:33.153Z,6.53
2018-07-13T19:02:02.055Z,6.35
2018-07-13T19:04:30.892Z,6.70
2018-07-13T19:06:59.770Z,5.85
2018-07-13T19:09:28.589Z,6.75
2018-07-13T19:11:57.454Z,7.03
2018-07-13T19:14:26.280Z,10.13
2018-07-13T19:16:55.244Z,8.30
2018-07-13T19:19:24.228Z,7.80
2018-07-13T19:21:53.522Z,10.83
2018-07-13T19:24:22.413Z,9.87
2018-07-13T19:26:51.302Z,10.67
2018-07-13T19:31:55.024Z,11.67
2018-07-13T19:34:23.870Z,12.07
2018-07-13T19:36:52.776Z,14.93
2018-07-13T19:39:21.607Z,12.40
2018-07-13T19:41:50.540Z,12.43
2018-07-13T19:44:19.393Z,13.20
2018-07-13T19:46:48.245Z,12.47
2018-07-13T19:49:17.058Z,13.80
2018-07-13T19:51:45.908Z,13.63
2018-07-13T19:54:14.729Z,12.63
2018-07-13T19:56:43.635Z,15.43
2018-07-13T19:59:12.494Z,15.80
2018-07-13T20:01:41.338Z,14.23
2018-07-13T20:04:10.280Z,13.27
2018-07-13T20:06:39.307Z,14.67
2018-07-13T20:09:08.273Z,11.63
2018-07-13T20:11:37.772Z,12.53
2018-07-13T20:14:06.709Z,13.83
2018-07-13T20:16:35.502Z,14.40
2018-07-13T20:19:04.389Z,10.90
2018-07-13T20:21:34.261Z,13.63
2018-07-13T20:24:03.155Z,13.07
2018-07-13T20:26:32.120Z,13.53
2018-07-13T20:29:00.929Z,10.57
2018-07-13T20:31:29.797Z,11.97
2018-07-13T20:33:58.657Z,11.20
2018-07-13T20:36:27.475Z,13.70
2018-07-13T20:38:56.367Z,14.93
2018-07-13T20:41:25.406Z,15.60
2018-07-13T20:43:54.273Z,12.87
2018-07-13T20:46:23.152Z,14.47
2018-07-13T20:48:51.730Z,12.27
2018-07-13T20:51:20.573Z,12.10
2018-07-13T20:53:49.492Z,15.23
2018-07-13T20:56:18.410Z,14.77
2018-07-13T20:58:47.284Z,14.70
2018-07-13T21:01:16.221Z,17.00
2018-07-13T21:03:45.044Z,13.77
2018-07-13T21:06:13.884Z,14.53
2018-07-13T21:08:42.328Z,14.80
2018-07-13T21:11:11.215Z,13.87
2018-07-13T21:13:40.073Z,11.90
2018-07-13T21:16:09.071Z,12.80
2018-07-13T21:18:38.557Z,11.90
2018-07-13T21:21:07.421Z,13.13
2018-07-13T21:23:36.539Z,11.67
2018-07-13T21:26:05.234Z,13.43
2018-07-13T21:28:33.726Z,13.03
2018-07-13T21:31:02.759Z,11.73
2018-07-13T21:33:31.621Z,11.20
2018-07-13T21:36:00.453Z,11.00
2018-07-13T21:38:29.352Z,10.77
2018-07-13T21:40:58.240Z,11.20
2018-07-13T21:43:27.088Z,11.17
2018-07-13T21:45:56.010Z,11.20
2018-07-13T21:48:24.889Z,9.63
2018-07-13T21:50:53.275Z,8.00
2018-07-13T21:53:22.129Z,8.63
2018-07-13T21:55:50.967Z,11.97
2018-07-13T21:58:19.802Z,9.20
2018-07-13T22:00:48.282Z,9.83
2018-07-13T22:03:17.865Z,10.83
2018-07-13T22:05:46.693Z,7.90
2018-07-13T22:08:15.862Z,7.80
2018-07-13T22:10:44.845Z,9.70
2018-07-13T22:13:13.688Z,8.60
2018-07-13T22:15:42.585Z,8.30
2018-07-13T22:18:11.432Z,9.13
2018-07-13T22:20:40.365Z,8.07
2018-07-13T22:23:09.228Z,9.67
2018-07-13T22:25:38.118Z,7.43
2018-07-13T22:28:06.977Z,9.97
2018-07-13T22:30:35.436Z,6.83
2018-07-13T22:33:04.315Z,8.30
2018-07-13T22:35:33.192Z,7.30
2018-07-13T22:38:01.989Z,7.57
2018-07-13T22:40:30.905Z,6.50
2018-07-13T22:42:59.913Z,6.67
2018-07-13T22:45:28.280Z,7.00
2018-07-13T22:47:57.197Z,5.90
2018-07-13T22:50:26.117Z,6.10
2018-07-13T22:52:55.021Z,6.57
2018-07-13T22:55:23.972Z,7.93
2018-07-13T22:57:52.780Z,6.70
2018-07-13T23:00:21.665Z,7.87
2018-07-13T23:02:50.484Z,6.93
2018-07-13T23:05:19.330Z,7.03
2018-07-13T23:07:48.238Z,7.20
2018-07-13T23:10:17.758Z,7.33
2018-07-13T23:12:46.666Z,6.63
2018-07-13T23:15:15.658Z,5.60
2018-07-13T23:17:45.357Z,5.83
2018-07-13T23:20:14.234Z,8.10
2018-07-13T23:22:43.107Z,9.07
2018-07-13T23:25:11.934Z,7.37
2018-07-13T23:27:40.429Z,9.03
2018-07-13T23:30:12.644Z,5.20
2018-07-13T23:32:41.504Z,5.90
2018-07-13T23:35:10.349Z,5.60
2018-07-13T23:37:38.772Z,4.83
2018-07-13T23:40:07.647Z,4.73
2018-07-13T23:42:36.516Z,7.23
2018-07-13T23:45:05.398Z,6.83
2018-07-13T23:47:34.228Z,5.60
2018-07-13T23:50:04.222Z,5.43
2018-07-13T23:52:33.197Z,5.20
2018-07-13T23:55:01.999Z,6.50
2018-07-13T23:57:31.433Z,5.97
